Amy-c — MKWC7 — position and weather

sailwx.info

Track history (hours):
 
Tides and Currents Weather Stations Pressure Air Temp Water Temp Dewpoint Dewpoint Depression Visibility Wind Speed Wind Dir Waves Ship Positions

Amy-c

Last reported at 2015-Jul-15 09:33 UTC. Time now 2015-Aug-04 07:28 UTC.
Position N 58°43' W 004°18'.
Warning: this ship's position is 19 days out of date.

Length 137 m; draft 8.4 m.

Type: Cargo ship. MMSI: 235010170.

Date/timePositionNaut miles runAvg speedWind from/ knotsBaromVisibWave heightAir tempDewpointWater temp
2015-Jul-15 09:33N 58°43' W 004°18'1010.5
2015-Jul-15 08:33N 58°43' W 003°57'1010.2
2015-Jul-15 07:33N 58°44' W 003°38'1010.1
2015-Jul-15 06:33N 58°43' W 003°18'9 8.9
2015-Jul-15 05:33N 58°43' W 003°01'43311.1
2015-Jul-13 14:32N 57°49' E 010°35'7 6.9
2015-Jul-13 13:30N 57°43' E 010°44'3 2.4
2015-Jul-13 12:04N 57°41' E 010°39'0 0.0
2015-Jul-13 11:32N 57°41' E 010°39'0 0.0
2015-Jul-13 08:17N 57°41' E 010°39'0 0.0
2015-Jul-13 07:31N 57°41' E 010°39'0 0.0
2015-Jul-13 06:33N 57°41' E 010°39'0 0.0
2015-Jul-13 04:32N 57°41' E 010°39'1 0.8
2015-Jul-13 03:30N 57°42' E 010°40'8 7.7
2015-Jul-13 02:31N 57°49' E 010°43'1311.5
2015-Jul-13 01:23N 58°01' E 010°33'1011.5
2015-Jul-13 00:30N 58°10' E 010°25'1212.0
2015-Jul-12 23:31N 58°21' E 010°15'1311.6
2015-Jul-12 22:26N 58°32' E 010°05'1 0.7
2015-Jul-12 21:30N 58°32' E 010°05'1611.3
2015-Jul-12 20:05N 58°46' E 009°52'611.4
2015-Jul-12 19:33N 58°52' E 009°49'16 0.3
2015-Jul-10 18:21N 59°07' E 009°37'0 0.1
2015-Jul-10 17:17N 59°07' E 009°37'2 2.2
2015-Jul-10 16:33N 59°06' E 009°38'8 8.5
2015-Jul-10 15:33N 58°59' E 009°47'9 8.5
2015-Jul-10 14:33N 58°50' E 009°48'38510.0
2015-Jul-09 00:04N 58°42' W 002°34'611.3
2015-Jul-08 23:33N 58°43' W 002°45'1211.9
2015-Jul-08 22:33N 58°43' W 003°08'1110.8
2015-Jul-08 21:34N 58°43' W 003°29'1110.7
2015-Jul-08 20:33N 58°43' W 003°49'1010.5
2015-Jul-08 19:33N 58°43' W 004°09'1010.4
2015-Jul-08 18:34N 58°43' W 004°29'52 8.3
2015-Jul-08 12:18N 58°08' W 005°44'15710.5
2015-Jul-07 21:22N 55°37' W 007°03'1113.2
2015-Jul-07 20:31N 55°26' W 006°57'1212.4
2015-Jul-07 19:33N 55°14' W 006°54'  
Track history (hours):
 
Tides and Currents Weather Stations Pressure Air Temp Water Temp Dewpoint Dewpoint Depression Visibility Wind Speed Wind Dir Waves Ship Positions

Amy-c

Last reported at 2015-Jul-15 09:33 UTC. Time now 2015-Aug-04 07:28 UTC.
Position N 58°43' W 004°18'.
Warning: this ship's position is 19 days out of date.

Length 137 m; draft 8.4 m.

Type: Cargo ship. MMSI: 235010170.

Date/timePositionNaut miles runAvg speedWind from/ knotsBaromVisibWave heightAir tempDewpointWater temp
2015-Jul-15 09:33N 58°43' W 004°18'1010.5
2015-Jul-15 08:33N 58°43' W 003°57'1010.2
2015-Jul-15 07:33N 58°44' W 003°38'1010.1
2015-Jul-15 06:33N 58°43' W 003°18'9 8.9
2015-Jul-15 05:33N 58°43' W 003°01'43311.1
2015-Jul-13 14:32N 57°49' E 010°35'7 6.9
2015-Jul-13 13:30N 57°43' E 010°44'3 2.4
2015-Jul-13 12:04N 57°41' E 010°39'0 0.0
2015-Jul-13 11:32N 57°41' E 010°39'0 0.0
2015-Jul-13 08:17N 57°41' E 010°39'0 0.0
2015-Jul-13 07:31N 57°41' E 010°39'0 0.0
2015-Jul-13 06:33N 57°41' E 010°39'0 0.0
2015-Jul-13 04:32N 57°41' E 010°39'1 0.8
2015-Jul-13 03:30N 57°42' E 010°40'8 7.7
2015-Jul-13 02:31N 57°49' E 010°43'1311.5
2015-Jul-13 01:23N 58°01' E 010°33'1011.5
2015-Jul-13 00:30N 58°10' E 010°25'1212.0
2015-Jul-12 23:31N 58°21' E 010°15'1311.6
2015-Jul-12 22:26N 58°32' E 010°05'1 0.7
2015-Jul-12 21:30N 58°32' E 010°05'1611.3
2015-Jul-12 20:05N 58°46' E 009°52'611.4
2015-Jul-12 19:33N 58°52' E 009°49'16 0.3
2015-Jul-10 18:21N 59°07' E 009°37'0 0.1
2015-Jul-10 17:17N 59°07' E 009°37'2 2.2
2015-Jul-10 16:33N 59°06' E 009°38'8 8.5
2015-Jul-10 15:33N 58°59' E 009°47'9 8.5
2015-Jul-10 14:33N 58°50' E 009°48'38510.0
2015-Jul-09 00:04N 58°42' W 002°34'611.3
2015-Jul-08 23:33N 58°43' W 002°45'1211.9
2015-Jul-08 22:33N 58°43' W 003°08'1110.8
2015-Jul-08 21:34N 58°43' W 003°29'1110.7
2015-Jul-08 20:33N 58°43' W 003°49'1010.5
2015-Jul-08 19:33N 58°43' W 004°09'1010.4
2015-Jul-08 18:34N 58°43' W 004°29'52 8.3
2015-Jul-08 12:18N 58°08' W 005°44'15710.5
2015-Jul-07 21:22N 55°37' W 007°03'1113.2
2015-Jul-07 20:31N 55°26' W 006°57'1212.4
2015-Jul-07 19:33N 55°14' W 006°54'  

Dump ship's entire track history